sensor_id;sensor_type;location;lat;lon;timestamp;pressure;altitude;pressure_sealevel;temperature;humidity
12636;BME280;6383;50.830;7.210;2023-05-20T16:21:29;100989.44;;;18.62;56.36
12636;BME280;6383;50.830;7.210;2023-05-20T16:23:57;100983.44;;;19.09;56.21
12636;BME280;6383;50.830;7.210;2023-05-20T16:26:27;100988.19;;;19.48;54.44
12636;BME280;6383;50.830;7.210;2023-05-20T16:28:58;100982.44;;;19.81;53.39
12636;BME280;6383;50.830;7.210;2023-05-20T16:31:32;100977.22;;;20.07;52.35
12636;BME280;6383;50.830;7.210;2023-05-20T16:34:02;100979.88;;;20.32;51.90
12636;BME280;6383;50.830;7.210;2023-05-20T16:36:33;100972.94;;;20.54;52.37
12636;BME280;6383;50.830;7.210;2023-05-20T16:39:03;100984.69;;;20.66;51.09
12636;BME280;6383;50.830;7.210;2023-05-20T16:41:32;100987.00;;;20.80;50.21
12636;BME280;6383;50.830;7.210;2023-05-20T16:44:01;100988.78;;;20.88;49.90
12636;BME280;6383;50.830;7.210;2023-05-20T16:46:29;100989.38;;;20.97;49.30
12636;BME280;6383;50.830;7.210;2023-05-20T16:48:59;100979.28;;;21.05;49.42
12636;BME280;6383;50.830;7.210;2023-05-20T16:51:27;100991.66;;;21.11;50.01
12636;BME280;6383;50.830;7.210;2023-05-20T16:53:57;100983.09;;;21.16;50.10
12636;BME280;6383;50.830;7.210;2023-05-20T16:56:26;100987.19;;;21.22;49.40
12636;BME280;6383;50.830;7.210;2023-05-20T16:58:56;100994.88;;;21.29;48.94
12636;BME280;6383;50.830;7.210;2023-05-20T17:01:24;100990.13;;;21.29;49.10
12636;BME280;6383;50.830;7.210;2023-05-20T17:04:30;100994.16;;;21.32;49.20
12636;BME280;6383;50.830;7.210;2023-05-20T17:07:06;100990.66;;;21.35;49.86
12636;BME280;6383;50.830;7.210;2023-05-20T17:09:40;100987.09;;;21.34;49.43
12636;BME280;6383;50.830;7.210;2023-05-20T17:12:07;100992.69;;;21.38;49.28
12636;BME280;6383;50.830;7.210;2023-05-20T17:14:35;100995.09;;;21.39;49.21
12636;BME280;6383;50.830;7.210;2023-05-20T17:17:03;100992.41;;;21.43;49.26
12636;BME280;6383;50.830;7.210;2023-05-20T17:19:36;100992.03;;;21.44;49.40
12636;BME280;6383;50.830;7.210;2023-05-20T17:22:17;100984.53;;;21.45;48.92
12636;BME280;6383;50.830;7.210;2023-05-20T17:24:49;100981.75;;;21.45;49.39
12636;BME280;6383;50.830;7.210;2023-05-20T17:27:44;100978.63;;;21.46;49.56
12636;BME280;6383;50.830;7.210;2023-05-20T17:30:13;100977.47;;;21.48;49.01
12636;BME280;6383;50.830;7.210;2023-05-20T17:33:18;100989.78;;;21.50;49.11
12636;BME280;6383;50.830;7.210;2023-05-20T17:35:56;100990.97;;;21.49;48.94
12636;BME280;6383;50.830;7.210;2023-05-20T17:38:25;100997.31;;;21.50;49.05
12636;BME280;6383;50.830;7.210;2023-05-20T17:40:56;100988.09;;;21.45;48.68
12636;BME280;6383;50.830;7.210;2023-05-20T17:43:27;100994.00;;;21.44;49.20
12636;BME280;6383;50.830;7.210;2023-05-20T17:46:06;100997.84;;;21.39;49.20
12636;BME280;6383;50.830;7.210;2023-05-20T17:48:37;100996.63;;;21.37;48.97
12636;BME280;6383;50.830;7.210;2023-05-20T17:51:07;100997.00;;;21.35;49.40
12636;BME280;6383;50.830;7.210;2023-05-20T17:53:35;100999.25;;;21.30;48.82
12636;BME280;6383;50.830;7.210;2023-05-20T17:56:06;100992.00;;;21.25;49.74
12636;BME280;6383;50.830;7.210;2023-05-20T17:58:37;100986.84;;;21.24;49.27
12636;BME280;6383;50.830;7.210;2023-05-20T18:01:06;100985.63;;;21.21;49.67
12636;BME280;6383;50.830;7.210;2023-05-20T18:03:36;100990.34;;;21.21;49.70
12636;BME280;6383;50.830;7.210;2023-05-20T18:06:06;100992.63;;;21.19;49.85
12636;BME280;6383;50.830;7.210;2023-05-20T18:08:34;100995.09;;;21.20;50.28
12636;BME280;6383;50.830;7.210;2023-05-20T18:11:15;100994.72;;;21.22;49.34
12636;BME280;6383;50.830;7.210;2023-05-20T18:13:44;100996.25;;;21.19;49.69
12636;BME280;6383;50.830;7.210;2023-05-20T18:16:13;101000.50;;;21.17;50.13
12636;BME280;6383;50.830;7.210;2023-05-20T18:18:41;101000.84;;;21.15;49.83
12636;BME280;6383;50.830;7.210;2023-05-20T18:21:09;100996.50;;;21.14;49.76
12636;BME280;6383;50.830;7.210;2023-05-20T18:23:40;100994.06;;;21.12;50.15
12636;BME280;6383;50.830;7.210;2023-05-20T18:26:08;101007.56;;;21.14;49.97
12636;BME280;6383;50.830;7.210;2023-05-20T18:28:50;101010.69;;;21.12;50.06
12636;BME280;6383;50.830;7.210;2023-05-20T18:31:19;101007.47;;;21.10;49.60
12636;BME280;6383;50.830;7.210;2023-05-20T18:33:46;101005.06;;;21.09;50.43
12636;BME280;6383;50.830;7.210;2023-05-20T18:36:16;101013.72;;;21.07;50.31
12636;BME280;6383;50.830;7.210;2023-05-20T18:38:45;101012.13;;;21.06;50.03
12636;BME280;6383;50.830;7.210;2023-05-20T18:41:17;101012.84;;;21.03;50.34
12636;BME280;6383;50.830;7.210;2023-05-20T18:43:46;101016.44;;;21.04;50.10
12636;BME280;6383;50.830;7.210;2023-05-20T18:46:15;101015.97;;;21.02;50.53
12636;BME280;6383;50.830;7.210;2023-05-20T18:48:43;101013.56;;;21.00;51.12
12636;BME280;6383;50.830;7.210;2023-05-20T18:51:12;101015.09;;;20.98;51.46
12636;BME280;6383;50.830;7.210;2023-05-20T18:53:41;101008.31;;;20.95;50.95
12636;BME280;6383;50.830;7.210;2023-05-20T18:56:11;101013.38;;;20.93;51.03
12636;BME280;6383;50.830;7.210;2023-05-20T18:58:40;101007.78;;;20.90;51.30
12636;BME280;6383;50.830;7.210;2023-05-20T19:01:11;101012.44;;;20.86;50.70
12636;BME280;6383;50.830;7.210;2023-05-20T19:03:39;101014.31;;;20.82;51.00
12636;BME280;6383;50.830;7.210;2023-05-20T19:06:10;101002.44;;;20.81;50.73
12636;BME280;6383;50.830;7.210;2023-05-20T19:08:42;101002.72;;;20.76;50.92
12636;BME280;6383;50.830;7.210;2023-05-20T19:11:11;101007.00;;;20.73;51.27
12636;BME280;6383;50.830;7.210;2023-05-20T19:13:38;101008.53;;;20.71;51.32
12636;BME280;6383;50.830;7.210;2023-05-20T19:16:08;101013.59;;;20.69;51.23
12636;BME280;6383;50.830;7.210;2023-05-20T19:18:37;101013.06;;;20.63;51.30
12636;BME280;6383;50.830;7.210;2023-05-20T19:21:05;101007.09;;;20.61;51.35
12636;BME280;6383;50.830;7.210;2023-05-20T19:23:35;101013.34;;;20.58;51.61
12636;BME280;6383;50.830;7.210;2023-05-20T19:26:02;101025.13;;;20.55;51.65
12636;BME280;6383;50.830;7.210;2023-05-20T19:28:30;101017.88;;;20.51;51.24
12636;BME280;6383;50.830;7.210;2023-05-20T19:30:59;101023.34;;;20.47;51.76
12636;BME280;6383;50.830;7.210;2023-05-20T19:33:28;101028.41;;;20.45;51.66
12636;BME280;6383;50.830;7.210;2023-05-20T19:35:58;101031.88;;;20.42;53.41
12636;BME280;6383;50.830;7.210;2023-05-20T19:38:26;101031.78;;;20.38;52.97
12636;BME280;6383;50.830;7.210;2023-05-20T19:40:55;101030.06;;;20.34;53.19
12636;BME280;6383;50.830;7.210;2023-05-20T19:43:25;101033.53;;;20.31;53.19
12636;BME280;6383;50.830;7.210;2023-05-20T19:45:54;101031.47;;;20.28;53.20
12636;BME280;6383;50.830;7.210;2023-05-20T19:48:22;101026.66;;;20.25;53.44
12636;BME280;6383;50.830;7.210;2023-05-20T19:50:49;101027.72;;;20.20;53.41
12636;BME280;6383;50.830;7.210;2023-05-20T19:53:19;101032.00;;;20.18;53.73
12636;BME280;6383;50.830;7.210;2023-05-20T19:55:47;101027.19;;;20.15;54.00
12636;BME280;6383;50.830;7.210;2023-05-20T19:58:15;101026.28;;;20.11;53.38
12636;BME280;6383;50.830;7.210;2023-05-20T20:00:43;101026.97;;;20.07;54.03
12636;BME280;6383;50.830;7.210;2023-05-20T20:03:11;101025.28;;;20.03;53.90
12636;BME280;6383;50.830;7.210;2023-05-20T20:05:39;101030.38;;;20.01;54.05
12636;BME280;6383;50.830;7.210;2023-05-20T20:08:08;101026.34;;;19.98;54.21
12636;BME280;6383;50.830;7.210;2023-05-20T20:10:38;101028.19;;;19.94;54.69
12636;BME280;6383;50.830;7.210;2023-05-20T20:13:07;101028.44;;;19.89;54.76
12636;BME280;6383;50.830;7.210;2023-05-20T20:15:36;101025.94;;;19.84;54.75
12636;BME280;6383;50.830;7.210;2023-05-20T20:18:06;101015.94;;;19.80;55.00
12636;BME280;6383;50.830;7.210;2023-05-20T20:20:35;101022.97;;;19.77;54.97
12636;BME280;6383;50.830;7.210;2023-05-20T20:23:05;101022.09;;;19.73;55.47
12636;BME280;6383;50.830;7.210;2023-05-20T20:25:33;101024.72;;;19.69;55.08
12636;BME280;6383;50.830;7.210;2023-05-20T20:28:07;101022.31;;;19.68;55.06
12636;BME280;6383;50.830;7.210;2023-05-20T20:30:36;101024.63;;;19.66;55.48
12636;BME280;6383;50.830;7.210;2023-05-20T20:33:05;101017.03;;;19.63;55.80
12636;BME280;6383;50.830;7.210;2023-05-20T20:35:35;101014.16;;;19.59;56.51
12636;BME280;6383;50.830;7.210;2023-05-20T20:38:03;101018.00;;;19.55;56.39
12636;BME280;6383;50.830;7.210;2023-05-20T20:40:35;101018.22;;;19.50;56.47
12636;BME280;6383;50.830;7.210;2023-05-20T20:43:10;101008.66;;;19.47;56.25
12636;BME280;6383;50.830;7.210;2023-05-20T20:45:44;101006.16;;;19.42;56.73
12636;BME280;6383;50.830;7.210;2023-05-20T20:48:13;101009.59;;;19.39;56.51
12636;BME280;6383;50.830;7.210;2023-05-20T20:50:43;101002.38;;;19.34;57.32
12636;BME280;6383;50.830;7.210;2023-05-20T20:53:14;101005.00;;;19.31;56.66
12636;BME280;6383;50.830;7.210;2023-05-20T20:55:41;101008.84;;;19.26;56.82
12636;BME280;6383;50.830;7.210;2023-05-20T20:58:14;101005.97;;;19.23;56.76
12636;BME280;6383;50.830;7.210;2023-05-20T21:00:41;101008.25;;;19.21;57.05
12636;BME280;6383;50.830;7.210;2023-05-20T21:03:11;101003.09;;;19.19;57.59
12636;BME280;6383;50.830;7.210;2023-05-20T21:05:39;101001.81;;;19.17;57.80
12636;BME280;6383;50.830;7.210;2023-05-20T21:08:07;101000.13;;;19.12;57.78
12636;BME280;6383;50.830;7.210;2023-05-20T21:10:38;101001.97;;;19.08;57.60
12636;BME280;6383;50.830;7.210;2023-05-20T21:13:07;100987.25;;;19.04;58.06
12636;BME280;6383;50.830;7.210;2023-05-20T21:15:36;100986.78;;;19.02;58.54
12636;BME280;6383;50.830;7.210;2023-05-20T21:18:05;100991.50;;;19.01;58.49
12636;BME280;6383;50.830;7.210;2023-05-20T21:20:32;100987.50;;;18.99;58.72
12636;BME280;6383;50.830;7.210;2023-05-20T21:23:00;100984.63;;;18.95;58.56
12636;BME280;6383;50.830;7.210;2023-05-20T21:25:30;100985.31;;;18.92;59.26
12636;BME280;6383;50.830;7.210;2023-05-20T21:27:57;100982.44;;;18.89;58.46
12636;BME280;6383;50.830;7.210;2023-05-20T21:30:27;100989.78;;;18.85;58.22
12636;BME280;6383;50.830;7.210;2023-05-20T21:32:57;100989.34;;;18.83;58.37
12636;BME280;6383;50.830;7.210;2023-05-20T21:35:24;100984.84;;;18.78;59.05
12636;BME280;6383;50.830;7.210;2023-05-20T21:37:52;100981.97;;;18.75;59.22
12636;BME280;6383;50.830;7.210;2023-05-20T21:40:21;100982.66;;;18.72;59.20
12636;BME280;6383;50.830;7.210;2023-05-20T21:42:49;100988.97;;;18.72;59.54
12636;BME280;6383;50.830;7.210;2023-05-20T21:45:17;100993.69;;;18.72;59.19
12636;BME280;6383;50.830;7.210;2023-05-20T21:47:44;100985.00;;;18.70;59.50
12636;BME280;6383;50.830;7.210;2023-05-20T21:50:14;100983.38;;;18.69;59.47
12636;BME280;6383;50.830;7.210;2023-05-20T21:52:44;100980.97;;;18.67;58.95
12636;BME280;6383;50.830;7.210;2023-05-20T21:55:13;100969.81;;;18.63;59.22
12636;BME280;6383;50.830;7.210;2023-05-20T21:57:42;100968.19;;;18.62;59.12
12636;BME280;6383;50.830;7.210;2023-05-20T22:00:10;100978.44;;;18.62;59.42
12636;BME280;6383;50.830;7.210;2023-05-20T22:02:40;100966.94;;;18.60;60.44
12636;BME280;6383;50.830;7.210;2023-05-20T22:05:08;100960.94;;;18.58;59.89
12636;BME280;6383;50.830;7.210;2023-05-20T22:07:39;100970.69;;;18.55;59.77
12636;BME280;6383;50.830;7.210;2023-05-20T22:10:10;100968.63;;;18.52;60.23
12636;BME280;6383;50.830;7.210;2023-05-20T22:12:38;100965.75;;;18.49;59.91
12636;BME280;6383;50.830;7.210;2023-05-20T22:15:08;100963.34;;;18.47;60.17
12636;BME280;6383;50.830;7.210;2023-05-20T22:17:38;100967.25;;;18.46;60.66
12636;BME280;6383;50.830;7.210;2023-05-20T22:20:07;100967.13;;;18.43;60.45
12636;BME280;6383;50.830;7.210;2023-05-20T22:22:38;100969.06;;;18.42;60.23
12636;BME280;6383;50.830;7.210;2023-05-20T22:25:08;100961.13;;;18.41;60.54
12636;BME280;6383;50.830;7.210;2023-05-20T22:27:35;100961.50;;;18.39;60.84
12636;BME280;6383;50.830;7.210;2023-05-20T22:30:04;100966.56;;;18.37;61.42
12636;BME280;6383;50.830;7.210;2023-05-20T22:32:34;100950.69;;;18.34;61.76
12636;BME280;6383;50.830;7.210;2023-05-20T22:35:03;100952.19;;;18.31;61.36
12636;BME280;6383;50.830;7.210;2023-05-20T22:37:31;100952.06;;;18.28;61.34
12636;BME280;6383;50.830;7.210;2023-05-20T22:40:00;100947.25;;;18.25;61.49
12636;BME280;6383;50.830;7.210;2023-05-20T22:42:28;100946.78;;;18.23;61.42
12636;BME280;6383;50.830;7.210;2023-05-20T22:44:57;100943.22;;;18.22;61.67
12636;BME280;6383;50.830;7.210;2023-05-20T22:47:26;100937.25;;;18.20;62.42
12636;BME280;6383;50.830;7.210;2023-05-20T22:49:55;100937.59;;;18.19;61.84
12636;BME280;6383;50.830;7.210;2023-05-20T22:52:28;100936.78;;;18.18;61.65
12636;BME280;6383;50.830;7.210;2023-05-20T22:54:56;100935.19;;;18.17;61.60
12636;BME280;6383;50.830;7.210;2023-05-20T22:57:27;100931.97;;;18.15;61.80
12636;BME280;6383;50.830;7.210;2023-05-20T22:59:55;100923.56;;;18.12;62.30
12636;BME280;6383;50.830;7.210;2023-05-20T23:02:25;100923.13;;;18.10;61.92
12636;BME280;6383;50.830;7.210;2023-05-20T23:04:55;100916.00;;;18.09;62.29
12636;BME280;6383;50.830;7.210;2023-05-20T23:07:23;100912.13;;;18.10;62.21
12636;BME280;6383;50.830;7.210;2023-05-20T23:09:51;100912.22;;;18.13;61.75
12636;BME280;6383;50.830;7.210;2023-05-20T23:12:21;100912.22;;;18.13;61.90
12636;BME280;6383;50.830;7.210;2023-05-20T23:14:51;100912.56;;;18.12;62.10
12636;BME280;6383;50.830;7.210;2023-05-20T23:17:20;100907.75;;;18.09;61.64
12636;BME280;6383;50.830;7.210;2023-05-20T23:19:47;100908.09;;;18.07;61.98
12636;BME280;6383;50.830;7.210;2023-05-20T23:22:17;100905.19;;;18.04;61.87
12636;BME280;6383;50.830;7.210;2023-05-20T23:24:44;100896.47;;;18.02;62.55
12636;BME280;6383;50.830;7.210;2023-05-20T23:27:11;100894.41;;;17.98;62.45
12636;BME280;6383;50.830;7.210;2023-05-20T23:29:39;100890.84;;;17.98;62.73
12636;BME280;6383;50.830;7.210;2023-05-20T23:32:08;100891.56;;;17.95;62.67
12636;BME280;6383;50.830;7.210;2023-05-20T23:34:37;100884.78;;;17.92;63.29
12636;BME280;6383;50.830;7.210;2023-05-20T23:37:06;100887.88;;;17.91;63.40
12636;BME280;6383;50.830;7.210;2023-05-20T23:39:34;100881.56;;;17.90;63.34
12636;BME280;6383;50.830;7.210;2023-05-20T23:42:03;100888.19;;;17.89;63.07
12636;BME280;6383;50.830;7.210;2023-05-20T23:44:32;100886.94;;;17.87;63.06
12636;BME280;6383;50.830;7.210;2023-05-20T23:47:00;100894.38;;;17.86;62.71
12636;BME280;6383;50.830;7.210;2023-05-20T23:49:30;100890.03;;;17.85;63.05
12636;BME280;6383;50.830;7.210;2023-05-20T23:51:58;100882.09;;;17.84;63.52
12636;BME280;6383;50.830;7.210;2023-05-20T23:54:27;100881.63;;;17.82;63.05
12636;BME280;6383;50.830;7.210;2023-05-20T23:56:58;100878.44;;;17.80;63.21
12636;BME280;6383;50.830;7.210;2023-05-20T23:59:26;100874.06;;;17.79;63.12
